• Join FlightAware (Why Join?)
  • Login
  • US Flag 
01:31PM EDT


 

Airport Tracker/Info


-or-


 

Live Flight TrackerFlight Track Log ✈ EGF3609 ✈ 01-May-2013 ✈ KPIT - KORD

Flight Track Log - Related Links

Times and Time Zones

All times are in EDT time to prevent confusion due to time zone crossing. See the EGF3609 flight status page for this flight to view local times or setup timezone preferences in your user account.

Time Position Orientation Groundspeed Altitude Reporting Facility
EDT Latitude Longitude Course Direction KTS MPH feet Rate Location/Type
06:22AM 40.5623 -80.6280 285° West  Level FlightAware Approximate
06:23AM 40.5921 -80.7640 291° West  Level FlightAware Approximate
06:23AM 40.5922 -80.3453 270° West 302 348 9,800  Level Cleveland Center
06:24AM 40.6263 -80.8981 285° West  Level FlightAware Approximate
06:24AM 40.6050 -80.4600 278° West 322 371 11,700  Level Cleveland Center
06:25AM 40.6557 -81.0344 282° West  Level FlightAware Approximate
06:25AM 40.6258 -80.5914 282° West 357 411 12,900  Level Cleveland Center
06:26AM 40.6819 -81.1719 286° West  Level FlightAware Approximate
06:26AM 40.6508 -80.7417 282° West 376 433 14,400  Level Cleveland Center
06:27AM 40.7107 -81.3086 286° West  Level FlightAware Approximate
06:27AM 40.6714 -80.8897 280° West 398 458 16,100  Level Cleveland Center
06:28AM 40.7333 -81.4465 270° West  Level FlightAware Approximate
06:28AM 40.6917 -81.0378 280° West 411 473 18,000  Level Cleveland Center
06:29AM 40.7075 -81.1911 278° West 417 480 19,600 1,500 Climbing Cleveland Center
06:30AM 40.7275 -81.3392 280° West 417 480 21,000 1,260 Climbing Cleveland Center
06:31AM 40.7514 -81.4875 282° West 411 473 22,200 1,140 Climbing Cleveland Center
06:32AM 40.7794 -81.6389 284° West 423 487 23,300 1,020 Climbing Cleveland Center
06:33AM 40.8069 -81.7983 283° West 433 498 24,300 900 Climbing Cleveland Center
06:34AM 40.8303 -81.9386 282° West 439 505 25,100 900 Climbing Cleveland Center
06:35AM 40.8617 -82.0986 285° West 439 505 26,100 1,020 Climbing Cleveland Center
06:36AM 40.8908 -82.2586 284° West 448 516 27,200 1,020 Climbing Cleveland Center
06:37AM 40.9175 -82.4214 282° West 448 516 28,200 960 Climbing Cleveland Center
06:38AM 40.9500 -82.5956 284° West 448 516 29,200 960 Climbing Cleveland Center
06:39AM 40.9761 -82.7586 282° West 448 516 30,200 1,020 Climbing Cleveland Center
06:40AM 41.0064 -82.9192 284° West 448 516 31,300 1,020 Climbing Cleveland Center
06:41AM 41.0322 -83.0769 282° West 453 521 32,300 900 Climbing Cleveland Center
06:42AM 41.0603 -83.2158 285° West 448 516 33,100 780 Climbing Cleveland Center
06:43AM 41.0878 -83.3767 283° West 448 516 33,900 420 Climbing Cleveland Center
06:44AM 41.1125 -83.5569 280° West 443 510 34,000  Climbing Cleveland Center
06:45AM 41.1392 -83.7208 282° West 448 516 34,000  Level Cleveland Center
06:46AM 41.1681 -83.8850 283° West 453 521 34,000  Level Cleveland Center
06:49AM 41.2250 -84.2600 282° West 455 524 34,000  Level Chicago Center
06:50AM 41.2292 -84.4275 272° West 452 520 34,000  Level Chicago Center
06:51AM 41.2353 -84.5961 273° West 455 524 34,000  Level Chicago Center
06:52AM 41.2419 -84.7675 273° West 463 533 34,000 -300 Level Chicago Center
06:53AM 41.2481 -84.9444 273° West 476 548 33,400 -840 Descending Chicago Center
06:54AM 41.2547 -85.1247 273° West 484 557 32,400 -1,020 Descending Chicago Center
06:55AM 41.2608 -85.3058 273° West 487 560 31,400 -1,080 Descending Chicago Center
06:56AM 41.2669 -85.4858 273° West 486 559 30,300 -720 Descending Chicago Center
06:57AM 41.2725 -85.6672 272° West 485 558 30,000 -1,080 Descending Chicago Center
06:58AM 41.2769 -85.8414 272° West 476 548 28,200 -2,460 Descending Chicago Center
06:59AM 41.2822 -86.0117 272° West 463 533 25,100 -1,620 Descending Chicago Center
07:00AM 41.3117 -86.1719 284° West 452 520 25,000 -60 Descending Chicago Center
07:01AM 41.3464 -86.3369 286° West 462 532 25,000 -420 Level Chicago Center
07:02AM 41.3878 -86.5333 286° West 461 531 24,200 -2,220 Descending Chicago Center
07:03AM 41.4203 -86.6922 285° West 451 519 20,500 -3,600 Descending Chicago Center
07:04AM 41.4494 -86.8317 286° West 413 475 17,000 -3,600 Descending Chicago Center
07:05AM 41.4769 -86.9658 285° West 382 440 13,300 -2,760 Descending Chicago Center
07:06AM 41.5053 -87.0994 286° West 376 433 11,400 -1,740 Descending Chicago Center
07:06AM 41.5167 -87.1500 287° West 379 436 11,000 -360 Descending Chicago TRACON
07:07AM 41.5833 -87.2667 307° West 368 423 11,000  Level Chicago TRACON
07:08AM 41.6500 -87.3667 312° West 372 428 11,000  Level Chicago TRACON
07:09AM 41.6850 -87.4286 307° West 372 428 11,000  Level Chicago Center
07:10AM 41.7508 -87.5333 310° West 372 428 11,000 -540 Level Chicago Center
07:11AM 41.8247 -87.6522 310° West 348 400 10,000 -960 Descending Chicago Center
07:11AM 41.8333 -87.6667 309° West 324 373 9,800 -1,800 Descending Chicago TRACON
07:12AM 41.8833 -87.7500 309° West 304 350 7,900 -1,500 Descending Chicago TRACON
07:13AM 41.9667 -87.7500 360° North 277 319 7,000 -1,440 Descending Chicago TRACON
07:14AM 42.0167 -87.6833 45° Northeast 236 272 5,100 -1,680 Descending Chicago TRACON
07:15AM 42.0833 -87.6833 360° North 230 265 3,700 -1,080 Descending Chicago TRACON
07:16AM 42.1167 -87.7333 312° West 210 242 3,000 -720 Descending Chicago TRACON
07:17AM 42.1000 -87.7833 246° West 156 180 2,300 -720 Descending Chicago TRACON